createdAt,value
2023-04-18T00:03:00.907Z,90.85
2023-04-18T00:06:45.095Z,90.85
2023-04-18T00:09:38.320Z,90.73
2023-04-18T00:12:11.656Z,90.86
2023-04-18T00:14:41.268Z,90.71
2023-04-18T00:17:10.609Z,90.35
2023-04-18T00:19:43.525Z,90.85
2023-04-18T00:22:43.036Z,90.98
2023-04-18T00:25:12.486Z,90.94
2023-04-18T00:27:42.906Z,91.16
2023-04-18T00:30:21.386Z,90.90
2023-04-18T00:36:40.161Z,90.75
2023-04-18T00:43:28.429Z,91.03
2023-04-18T00:45:59.560Z,91.07
2023-04-18T00:48:39.324Z,91.18
2023-04-18T00:51:09.865Z,91.26
2023-04-18T00:53:42.347Z,91.26
2023-04-18T00:56:11.754Z,91.34
2023-04-18T00:58:41.150Z,91.28
2023-04-18T01:01:11.648Z,90.94
2023-04-18T01:03:46.835Z,90.59
2023-04-18T01:06:17.071Z,90.37
2023-04-18T01:08:46.111Z,90.35
2023-04-18T01:11:14.593Z,90.45
2023-04-18T01:13:43.476Z,90.61
2023-04-18T01:16:12.515Z,90.78
2023-04-18T01:18:41.188Z,90.79
2023-04-18T01:21:10.259Z,90.69
2023-04-18T01:23:39.556Z,90.55
2023-04-18T01:26:08.038Z,90.30
2023-04-18T01:29:01.082Z,89.77
2023-04-18T01:31:36.350Z,89.36
2023-04-18T01:34:06.055Z,89.53
2023-04-18T01:36:36.981Z,90.00
2023-04-18T01:42:16.248Z,90.19
2023-04-18T01:44:46.045Z,90.03
2023-04-18T01:47:17.873Z,90.24
2023-04-18T01:49:48.551Z,90.42
2023-04-18T01:52:18.145Z,90.56
2023-04-18T01:55:12.275Z,90.28
2023-04-18T01:57:40.515Z,90.20
2023-04-18T02:00:11.024Z,89.46
2023-04-18T02:02:45.479Z,89.82
2023-04-18T02:05:39.220Z,89.94
2023-04-18T02:08:09.321Z,89.06
2023-04-18T02:10:39.772Z,89.19
2023-04-18T02:13:08.257Z,89.55
2023-04-18T02:15:37.782Z,89.39
2023-04-18T02:18:07.265Z,89.09
2023-04-18T02:20:36.688Z,89.18
2023-04-18T02:23:05.990Z,89.11
2023-04-18T02:25:34.548Z,88.84
2023-04-18T02:28:03.142Z,88.61
2023-04-18T02:30:32.874Z,88.66
2023-04-18T02:33:03.822Z,88.53
2023-04-18T02:35:32.475Z,88.78
2023-04-18T02:38:01.023Z,88.07
2023-04-18T02:40:29.950Z,87.72
2023-04-18T02:43:02.311Z,87.59
2023-04-18T02:45:31.309Z,87.64
2023-04-18T02:48:01.699Z,88.12
2023-04-18T02:50:30.496Z,87.96
2023-04-18T02:52:59.118Z,87.73
2023-04-18T02:55:41.014Z,87.60
2023-04-18T02:58:09.887Z,88.30
2023-04-18T03:01:05.536Z,88.82
2023-04-18T03:04:08.410Z,89.03
2023-04-18T03:06:44.039Z,89.90
2023-04-18T03:09:12.933Z,89.93
2023-04-18T03:11:50.751Z,89.99
2023-04-18T03:14:22.082Z,90.21
2023-04-18T03:16:55.222Z,90.44
2023-04-18T03:19:27.540Z,90.01
2023-04-18T03:21:56.433Z,90.03
2023-04-18T03:24:25.120Z,90.18
2023-04-18T03:26:54.424Z,89.34
2023-04-18T03:29:25.050Z,89.64
2023-04-18T03:31:53.541Z,89.48
2023-04-18T03:34:22.534Z,89.53
2023-04-18T03:36:51.621Z,89.53
2023-04-18T03:39:20.099Z,89.72
2023-04-18T03:41:49.703Z,90.07
2023-04-18T03:44:18.594Z,90.09
2023-04-18T03:46:47.591Z,90.33
2023-04-18T03:49:16.377Z,90.57
2023-04-18T03:51:50.073Z,90.66
2023-04-18T03:54:19.378Z,90.79
2023-04-18T03:56:48.062Z,90.79
2023-04-18T03:59:16.760Z,89.95
2023-04-18T04:01:47.904Z,90.48
2023-04-18T04:04:16.809Z,90.62
2023-04-18T04:06:46.804Z,90.81
2023-04-18T04:09:15.595Z,90.84
2023-04-18T04:11:46.029Z,90.20
2023-04-18T04:14:16.122Z,90.27
2023-04-18T04:16:48.061Z,89.82
2023-04-18T04:19:19.574Z,89.74
2023-04-18T04:21:56.642Z,90.14
2023-04-18T04:24:50.505Z,90.09
2023-04-18T04:27:25.251Z,90.38
2023-04-18T04:29:54.449Z,90.36
2023-04-18T04:32:22.995Z,90.32
2023-04-18T04:34:52.164Z,90.15
2023-04-18T04:37:23.029Z,90.51
2023-04-18T04:40:06.514Z,90.28
2023-04-18T04:42:54.513Z,90.63
2023-04-18T04:45:27.351Z,90.55
2023-04-18T04:47:56.311Z,90.80
2023-04-18T04:50:24.978Z,90.85
2023-04-18T04:52:53.666Z,90.72
2023-04-18T04:55:51.947Z,90.13
2023-04-18T04:58:21.143Z,90.61
2023-04-18T05:01:08.314Z,90.83
2023-04-18T05:03:52.929Z,90.67
2023-04-18T05:06:23.044Z,89.56
2023-04-18T05:14:28.384Z,88.69
2023-04-18T05:17:56.239Z,88.46
2023-04-18T05:20:50.777Z,88.63
2023-04-18T05:23:48.156Z,86.76
2023-04-18T05:26:50.801Z,87.26
2023-04-18T05:29:26.792Z,87.67
2023-04-18T05:31:55.671Z,87.97
2023-04-18T05:34:28.242Z,86.95
2023-04-18T05:37:31.042Z,87.31
2023-04-18T05:40:09.231Z,87.90
2023-04-18T05:42:37.927Z,88.39
2023-04-18T05:45:07.875Z,89.17
2023-04-18T05:48:26.310Z,89.69
2023-04-18T05:51:06.369Z,89.91
2023-04-18T05:53:35.673Z,90.29
2023-04-18T05:56:11.647Z,90.85
2023-04-18T05:58:42.069Z,91.18
2023-04-18T06:01:14.968Z,90.85
2023-04-18T06:03:46.261Z,90.68
2023-04-18T06:06:15.402Z,90.50
2023-04-18T06:08:45.300Z,90.13
2023-04-18T06:11:15.658Z,90.45
2023-04-18T06:13:45.212Z,90.54
2023-04-18T06:17:02.608Z,90.32
2023-04-18T06:20:01.115Z,89.57
2023-04-18T06:22:29.812Z,89.17
2023-04-18T06:25:56.732Z,89.42
2023-04-18T06:29:28.185Z,89.02
2023-04-18T06:32:44.319Z,89.22
2023-04-18T06:36:05.638Z,86.35
2023-04-18T06:38:39.453Z,84.37
2023-04-18T06:41:17.048Z,84.58
2023-04-18T06:44:13.331Z,83.50
2023-04-18T06:46:42.921Z,81.75
2023-04-18T06:49:42.604Z,81.30
2023-04-18T06:52:12.955Z,82.09
2023-04-18T06:54:41.503Z,84.61
2023-04-18T06:58:01.708Z,84.37
2023-04-18T07:00:30.778Z,85.39
2023-04-18T07:02:59.456Z,85.96
2023-04-18T07:10:34.534Z,81.11
2023-04-18T07:14:02.133Z,75.46
2023-04-18T07:17:15.971Z,77.26
2023-04-18T07:19:45.043Z,80.64
2023-04-18T07:22:38.909Z,80.54
2023-04-18T07:25:08.628Z,79.03
2023-04-18T07:27:37.819Z,86.54
2023-04-18T07:30:07.545Z,87.42
2023-04-18T07:32:44.086Z,87.07
2023-04-18T07:35:12.796Z,86.69
2023-04-18T07:37:42.567Z,86.72
2023-04-18T07:40:11.723Z,86.90
2023-04-18T07:42:40.832Z,84.68
2023-04-18T07:45:15.776Z,86.04
2023-04-18T07:47:45.025Z,84.42
2023-04-18T07:50:13.941Z,87.43
2023-04-18T07:52:42.771Z,88.81
2023-04-18T07:55:11.538Z,89.79
2023-04-18T07:57:45.946Z,90.38
2023-04-18T08:00:19.930Z,91.03
2023-04-18T08:02:49.367Z,91.21
2023-04-18T08:05:20.476Z,90.45
2023-04-18T08:07:49.060Z,90.62
2023-04-18T08:10:17.943Z,90.70
2023-04-18T08:12:46.847Z,87.92
2023-04-18T08:15:15.619Z,86.49
2023-04-18T08:17:45.600Z,87.83
2023-04-18T08:20:14.132Z,90.10
2023-04-18T08:22:57.731Z,87.57
2023-04-18T08:25:56.750Z,83.57
2023-04-18T08:28:25.955Z,83.32
2023-04-18T08:30:55.493Z,81.44
2023-04-18T08:33:28.881Z,83.04
2023-04-18T08:35:57.848Z,81.90
2023-04-18T08:38:26.744Z,78.55
2023-04-18T08:40:55.626Z,78.64
2023-04-18T08:43:25.749Z,81.22
2023-04-18T08:45:59.709Z,83.80
2023-04-18T08:48:28.630Z,84.20
2023-04-18T08:51:02.253Z,86.26
2023-04-18T08:54:06.869Z,84.81
2023-04-18T08:56:37.746Z,82.48
2023-04-18T08:59:07.036Z,84.67
2023-04-18T09:02:02.054Z,84.76
2023-04-18T09:04:38.298Z,88.34
2023-04-18T09:07:31.843Z,88.96
2023-04-18T09:10:01.141Z,89.38
2023-04-18T09:15:54.629Z,87.53
2023-04-18T09:18:24.797Z,87.78
2023-04-18T09:21:17.613Z,86.00
2023-04-18T09:24:21.287Z,81.90
2023-04-18T09:26:54.207Z,82.83
2023-04-18T09:29:45.234Z,83.29
2023-04-18T09:32:25.946Z,82.23
2023-04-18T09:34:58.647Z,83.85
2023-04-18T09:41:11.111Z,84.98
2023-04-18T09:44:15.243Z,83.50
2023-04-18T09:46:47.561Z,82.50
2023-04-18T09:49:18.048Z,80.41
2023-04-18T09:52:10.522Z,80.29
2023-04-18T09:54:39.909Z,79.79
2023-04-18T09:57:13.964Z,79.21
2023-04-18T09:59:52.420Z,77.76
2023-04-18T10:02:25.710Z,75.13
2023-04-18T10:04:57.374Z,73.99
2023-04-18T10:08:16.487Z,73.57
2023-04-18T10:11:13.330Z,75.91
2023-04-18T10:13:44.853Z,76.24
2023-04-18T10:16:21.401Z,77.92
2023-04-18T10:18:51.775Z,82.34
2023-04-18T10:21:55.090Z,81.94
2023-04-18T10:24:45.366Z,80.16
2023-04-18T10:27:15.692Z,81.54
2023-04-18T10:29:54.555Z,81.10
2023-04-18T10:32:48.147Z,84.72
2023-04-18T10:35:16.891Z,83.75
2023-04-18T10:37:52.740Z,82.35
2023-04-18T10:40:42.728Z,80.84
2023-04-18T10:43:13.662Z,80.30
2023-04-18T10:45:44.176Z,81.64
2023-04-18T10:48:25.108Z,81.49
2023-04-18T10:51:16.004Z,82.50
2023-04-18T10:53:58.513Z,79.87
2023-04-18T10:56:28.417Z,80.29
2023-04-18T10:59:03.430Z,80.14
2023-04-18T11:01:33.423Z,79.76
2023-04-18T11:09:17.633Z,80.00
2023-04-18T11:12:03.428Z,78.71
2023-04-18T11:15:32.761Z,79.72
2023-04-18T11:18:12.171Z,79.54
2023-04-18T11:21:02.765Z,79.45
2023-04-18T11:27:36.301Z,80.26
2023-04-18T11:35:43.341Z,86.08
2023-04-18T11:39:13.512Z,88.05
2023-04-18T11:42:37.693Z,89.03
2023-04-18T11:45:49.837Z,87.29
2023-04-18T11:48:50.703Z,84.64
2023-04-18T11:52:39.593Z,87.12
2023-04-18T11:55:56.468Z,86.82
2023-04-18T12:05:42.138Z,87.19
2023-04-18T12:09:14.650Z,86.36
2023-04-18T12:12:55.385Z,85.55
2023-04-18T12:15:44.738Z,86.46
2023-04-18T12:18:15.718Z,87.23
2023-04-18T12:20:52.824Z,86.26
2023-04-18T12:23:35.759Z,84.54
2023-04-18T12:26:16.384Z,83.29
2023-04-18T12:28:46.534Z,81.34
2023-04-18T12:31:15.466Z,81.16
2023-04-18T12:33:44.705Z,84.39
2023-04-18T12:36:13.289Z,87.24
2023-04-18T12:38:41.971Z,88.81
2023-04-18T12:41:10.756Z,89.57
2023-04-18T12:43:39.458Z,89.60
2023-04-18T12:46:08.135Z,89.56
2023-04-18T12:48:36.451Z,89.69
2023-04-18T12:51:04.988Z,90.09
2023-04-18T12:53:35.209Z,90.04
2023-04-18T12:56:05.004Z,90.04
2023-04-18T12:58:34.276Z,89.71
2023-04-18T13:01:05.182Z,90.16
2023-04-18T13:03:34.779Z,90.53
2023-04-18T13:06:05.088Z,90.30
2023-04-18T13:08:35.654Z,89.81
2023-04-18T13:11:04.527Z,88.57
2023-04-18T13:13:34.457Z,88.62
2023-04-18T13:16:05.116Z,87.18
2023-04-18T13:18:33.647Z,85.34
2023-04-18T13:21:02.031Z,85.14
2023-04-18T13:23:30.636Z,83.60
2023-04-18T13:25:59.296Z,84.01
2023-04-18T13:28:27.925Z,86.24
2023-04-18T13:30:56.866Z,87.70
2023-04-18T13:33:25.254Z,87.08
2023-04-18T13:35:53.733Z,85.53
2023-04-18T13:38:22.213Z,81.79
2023-04-18T13:40:58.232Z,82.32
2023-04-18T13:43:37.712Z,83.55
2023-04-18T13:46:06.985Z,80.53
2023-04-18T13:48:35.611Z,79.89
2023-04-18T13:51:04.580Z,77.99
2023-04-18T13:53:33.071Z,76.62
2023-04-18T13:56:02.057Z,77.17
2023-04-18T13:58:30.536Z,78.84
2023-04-18T14:00:59.233Z,77.90
2023-04-18T14:03:28.895Z,77.21
2023-04-18T14:06:00.487Z,78.98
2023-04-18T14:08:29.368Z,81.90
2023-04-18T14:10:57.814Z,80.75
2023-04-18T14:13:26.355Z,80.33
2023-04-18T14:15:55.046Z,79.45
2023-04-18T14:18:24.933Z,79.91
2023-04-18T14:20:53.527Z,81.27
2023-04-18T14:23:23.147Z,82.58
2023-04-18T14:25:52.228Z,81.55
2023-04-18T14:28:23.984Z,81.56
2023-04-18T14:30:52.554Z,80.83
2023-04-18T14:33:21.783Z,80.35
2023-04-18T14:35:50.765Z,79.64
2023-04-18T14:38:19.539Z,80.84
2023-04-18T14:40:48.431Z,81.54
2023-04-18T14:43:16.930Z,81.78
2023-04-18T14:45:45.717Z,83.83
2023-04-18T14:48:15.082Z,83.90
2023-04-18T14:50:46.365Z,83.76
2023-04-18T14:53:14.707Z,84.14
2023-04-18T14:55:45.152Z,84.58
2023-04-18T14:58:16.044Z,84.71
2023-04-18T15:00:46.090Z,83.25
2023-04-18T15:03:14.830Z,82.84
2023-04-18T15:05:46.701Z,81.88
2023-04-18T15:08:16.466Z,81.03
2023-04-18T15:10:46.895Z,81.03
2023-04-18T15:13:16.917Z,80.62
2023-04-18T15:15:52.157Z,81.09
2023-04-18T15:18:21.732Z,82.72
2023-04-18T15:20:52.082Z,83.15
2023-04-18T15:23:20.797Z,82.88
2023-04-18T15:25:49.559Z,85.61
2023-04-18T15:28:19.476Z,86.32
2023-04-18T15:30:48.059Z,85.79
2023-04-18T15:33:19.321Z,85.90
2023-04-18T15:35:48.416Z,85.45
2023-04-18T15:38:17.090Z,85.32
2023-04-18T15:40:46.061Z,85.53
2023-04-18T15:43:14.669Z,85.56
2023-04-18T15:45:45.014Z,85.51
2023-04-18T15:48:14.143Z,85.91
2023-04-18T15:50:43.077Z,86.27
2023-04-18T15:53:12.183Z,86.33
2023-04-18T15:55:40.947Z,86.73
2023-04-18T15:58:09.428Z,87.00
2023-04-18T16:00:38.162Z,86.94
2023-04-18T16:05:38.655Z,87.11
2023-04-18T16:08:09.119Z,87.51
2023-04-18T16:10:38.180Z,87.47
2023-04-18T16:13:07.121Z,87.34
2023-04-18T16:15:36.368Z,87.68
2023-04-18T16:18:04.914Z,87.89
2023-04-18T16:20:33.850Z,88.04
2023-04-18T16:23:02.451Z,88.20
2023-04-18T16:25:31.112Z,87.91
2023-04-18T16:28:00.523Z,88.08
2023-04-18T16:30:29.000Z,87.96
2023-04-18T16:32:57.748Z,87.83
2023-04-18T16:35:26.775Z,88.02
2023-04-18T16:37:55.681Z,88.25
2023-04-18T16:40:24.164Z,87.58
2023-04-18T16:42:53.166Z,87.07
2023-04-18T16:45:22.754Z,86.87
2023-04-18T16:47:51.935Z,87.23
2023-04-18T16:50:23.021Z,86.83
2023-04-18T16:52:51.884Z,87.23
2023-04-18T16:55:20.570Z,87.77
2023-04-18T16:57:49.254Z,88.18
2023-04-18T17:00:18.453Z,88.39
2023-04-18T17:02:48.631Z,88.51
2023-04-18T17:05:18.879Z,88.78
2023-04-18T17:08:00.289Z,88.94
2023-04-18T17:11:45.046Z,87.52
2023-04-18T17:14:18.678Z,86.88
2023-04-18T17:16:53.454Z,86.70
2023-04-18T17:19:24.126Z,87.07
2023-04-18T17:21:52.809Z,86.13
2023-04-18T17:24:22.712Z,86.54
2023-04-18T17:26:58.183Z,86.32
2023-04-18T17:29:26.858Z,86.72
2023-04-18T17:31:55.684Z,86.81
2023-04-18T17:34:25.239Z,86.75
2023-04-18T17:36:53.725Z,87.12
2023-04-18T17:39:33.883Z,88.00
2023-04-18T17:42:02.351Z,88.34
2023-04-18T17:44:31.033Z,87.73
2023-04-18T17:47:08.329Z,87.79
2023-04-18T17:49:38.450Z,88.19
2023-04-18T17:52:32.727Z,88.01
2023-04-18T17:55:53.853Z,88.26
2023-04-18T17:58:55.278Z,88.17
2023-04-18T18:01:51.167Z,88.39
2023-04-18T18:04:20.883Z,88.31
2023-04-18T18:07:37.442Z,88.64
2023-04-18T18:10:23.854Z,88.74
2023-04-18T18:12:55.499Z,88.86
2023-04-18T18:15:32.265Z,88.93
2023-04-18T18:18:18.777Z,88.65
2023-04-18T18:20:47.504Z,88.78
2023-04-18T18:23:16.676Z,88.78
2023-04-18T18:25:46.266Z,88.85
2023-04-18T18:28:14.965Z,88.90
2023-04-18T18:31:10.291Z,89.56
2023-04-18T18:34:01.822Z,88.94
2023-04-18T18:36:33.911Z,88.86
2023-04-18T18:39:25.614Z,89.13
2023-04-18T18:41:55.076Z,88.83
2023-04-18T18:44:23.946Z,88.90
2023-04-18T18:47:00.832Z,88.68
2023-04-18T18:49:29.425Z,89.13
2023-04-18T18:52:09.917Z,89.35
2023-04-18T18:55:06.349Z,89.37
2023-04-18T18:57:42.477Z,89.60
2023-04-18T19:01:01.518Z,89.66
2023-04-18T19:03:39.687Z,89.46
2023-04-18T19:07:22.592Z,89.27
2023-04-18T19:10:16.703Z,88.94
2023-04-18T19:12:45.459Z,89.35
2023-04-18T19:15:14.966Z,89.70
2023-04-18T19:17:43.776Z,89.83
2023-04-18T19:21:02.970Z,90.09
2023-04-18T19:23:56.333Z,89.68
2023-04-18T19:26:57.729Z,89.26
2023-04-18T19:29:32.707Z,88.86
2023-04-18T19:32:04.067Z,89.12
2023-04-18T19:34:58.934Z,89.16
2023-04-18T19:37:36.496Z,88.94
2023-04-18T19:40:56.821Z,88.95
2023-04-18T19:43:59.105Z,88.94
2023-04-18T19:47:01.849Z,88.96
2023-04-18T19:49:41.911Z,89.19
2023-04-18T19:52:44.798Z,89.53
2023-04-18T19:55:37.434Z,89.59
2023-04-18T19:58:38.896Z,89.31
2023-04-18T20:01:10.542Z,89.49
2023-04-18T20:06:09.170Z,89.86
2023-04-18T20:08:41.745Z,89.47
2023-04-18T20:11:12.245Z,89.23
2023-04-18T20:13:41.665Z,89.24
2023-04-18T20:16:11.404Z,89.63
2023-04-18T20:18:41.944Z,89.76
2023-04-18T20:21:11.310Z,89.53
2023-04-18T20:23:42.364Z,89.27
2023-04-18T20:26:11.333Z,89.32
2023-04-18T20:28:40.633Z,89.26
2023-04-18T20:31:09.389Z,89.31
2023-04-18T20:33:38.632Z,89.43
2023-04-18T20:36:08.492Z,89.32
2023-04-18T20:38:37.185Z,89.22
2023-04-18T20:41:06.656Z,89.23
2023-04-18T20:43:37.535Z,89.10
2023-04-18T20:46:07.961Z,89.23
2023-04-18T20:48:36.334Z,89.18
2023-04-18T20:51:05.954Z,89.16
2023-04-18T20:53:35.357Z,89.30
2023-04-18T20:56:05.794Z,89.58
2023-04-18T20:58:34.388Z,89.29
2023-04-18T21:01:03.322Z,89.53
2023-04-18T21:03:32.686Z,89.50
2023-04-18T21:06:02.212Z,89.91
2023-04-18T21:08:32.010Z,89.75
2023-04-18T21:11:00.352Z,89.45
2023-04-18T21:13:28.916Z,89.59
2023-04-18T21:15:57.480Z,89.58
2023-04-18T21:18:26.024Z,89.65
2023-04-18T21:20:54.754Z,89.30
2023-04-18T21:23:26.058Z,89.35
2023-04-18T21:25:57.218Z,89.26
2023-04-18T21:28:25.992Z,89.01
2023-04-18T21:30:55.080Z,88.85
2023-04-18T21:33:24.901Z,89.57
2023-04-18T21:35:53.276Z,89.92
2023-04-18T21:38:25.565Z,90.25
2023-04-18T21:40:54.022Z,90.51
2023-04-18T21:43:22.621Z,90.97
2023-04-18T21:45:51.437Z,90.94
2023-04-18T21:48:20.090Z,91.16
2023-04-18T21:50:55.125Z,91.12
2023-04-18T21:53:23.707Z,91.32
2023-04-18T21:55:52.178Z,91.21
2023-04-18T21:58:20.666Z,91.40
2023-04-18T22:00:50.082Z,91.66
2023-04-18T22:03:18.757Z,91.72
2023-04-18T22:05:47.581Z,91.85
2023-04-18T22:08:16.540Z,92.02
2023-04-18T22:10:46.469Z,92.10
2023-04-18T22:13:14.931Z,92.27
2023-04-18T22:15:43.446Z,92.27
2023-04-18T22:18:14.732Z,91.80
2023-04-18T22:20:43.440Z,91.52
2023-04-18T22:23:12.293Z,91.50
2023-04-18T22:25:41.221Z,91.20
2023-04-18T22:28:09.811Z,91.18
2023-04-18T22:30:38.713Z,91.14
2023-04-18T22:33:07.179Z,91.38
2023-04-18T22:35:35.980Z,91.33
2023-04-18T22:38:04.556Z,91.43
2023-04-18T22:40:33.034Z,90.79
2023-04-18T22:43:01.439Z,90.75
2023-04-18T22:45:29.997Z,90.25
2023-04-18T22:47:58.612Z,90.24
2023-04-18T22:50:27.573Z,90.23
2023-04-18T22:52:57.481Z,90.00
2023-04-18T22:55:26.295Z,89.90
2023-04-18T22:57:54.766Z,90.04
2023-04-18T23:00:23.765Z,89.56
2023-04-18T23:02:53.181Z,89.53
2023-04-18T23:05:21.866Z,89.69
2023-04-18T23:07:50.835Z,89.34
2023-04-18T23:10:19.515Z,89.47
2023-04-18T23:12:48.315Z,89.55
2023-04-18T23:15:17.605Z,89.36
2023-04-18T23:17:46.153Z,89.32
2023-04-18T23:20:14.981Z,88.94
2023-04-18T23:22:43.558Z,89.20
2023-04-18T23:25:12.865Z,89.18
2023-04-18T23:27:42.264Z,89.65
2023-04-18T23:30:11.261Z,89.75
2023-04-18T23:32:39.736Z,89.62
2023-04-18T23:35:08.938Z,88.92
2023-04-18T23:37:37.421Z,88.78
2023-04-18T23:40:07.012Z,88.82
2023-04-18T23:42:36.237Z,88.71
2023-04-18T23:45:06.063Z,88.78
2023-04-18T23:47:34.891Z,88.89
2023-04-18T23:50:03.299Z,89.30
2023-04-18T23:52:32.000Z,89.89
2023-04-18T23:55:01.395Z,90.11
2023-04-18T23:57:29.768Z,90.22
2023-04-18T23:59:58.347Z,90.39
